WEATHER DATA

YESTERDAY
Time Temp. Dewp. Hum. Wind dir Wind speed Wind gust Bar. 1h Prec. 24h Prec.
00:07 9.4 5 74 225 1.1 3.6 998.5 0.0000 0.0000
00:13 9.3 4.9 74 220 1.4 7.8 998.6 0.0000 0.0000
00:33 9.2 4.8 74 221 1.9 5.6 999 0.0000 0.0000
00:43 9.1 4.7 74 223 2.2 5.3 999.3 0.0000 0.0000
00:53 9 4.8 75 216 1.9 5.8 999.4 0.0000 0.0000
01:03 8.9 4.7 75 220 1.7 4.7 999.7 0.0000 0.0000
01:23 8.8 4.8 76 209 1.1 3.9 1000 0.0000 0.0000
01:33 8.8 5 77 206 0.6 2.8 1000.2 0.0000 0.0000
01:43 8.8 5 77 225 0.6 2.2 1000.3 0.0000 0.0000
01:54 8.7 5.1 78 126 0.8 2.5 1000.4 0.0000 0.0000
02:03 8.8 5.2 78 90 0.3 1.1 1000.8 0.0000 0.0000
02:13 8.7 5.1 78 299 0.6 1.9 1001.1 0.0000 0.0000
02:24 8.6 5 78 292 0.6 1.4 1001.4 0.0000 0.0000
02:34 8.2 5 80 270 0.6 1.7 1001.6 0.0000 0.0000
02:44 7.6 4.9 83 270 0.3 1.1 1001.8 0.0000 0.0000
02:54 7.3 4.9 85 270 0.6 1.9 1002.1 0.0000 0.0000
03:04 7.1 5.1 87 286 0.6 2.2 1002.4 0.0000 0.0000
03:14 6.9 5.2 89 270 0.8 2.5 1002.5 0.1600 0.2000
03:24 6.7 5.2 90 270 0.6 1.4 1002.7 0.4800 0.5000
03:35 6.6 5.1 90 299 0.6 1.4 1002.7 0.4800 0.5000
03:44 6.5 5.1 91 293 0.6 1.4 1003 0.4800 0.5000
03:54 6.4 5 91 236 0.6 1.1 1003.1 0.4800 0.5000
04:04 6.3 4.9 91 270 0.3 1.1 1003.6 0.3200 0.5000
04:15 6.2 4.8 91 315 1.1 2.5 1003.7 0.0000 0.5000
04:25 6.1 4.7 91 282 0.8 1.9 1004 0.0000 0.5000
04:34 6 4.5 90 249 0.8 2.2 1004 0.0000 0.5000
04:45 5.8 4.3 90 270 0.8 2.2 1004.1 0.0000 0.5000
04:55 5.6 4.1 90 270 0.3 1.1 1004.3 0.0000 0.5000
05:05 5.3 3.8 90 270 0.6 1.4 1004.7 0.0000 0.5000
05:15 5.2 3.7 90 292 0.6 1.9 1005.2 0.0000 0.5000
05:25 5.1 3.8 91 270 0.3 1.1 1005.2 0.0000 0.5000
05:35 5 3.7 91 270 0.3 1.4 1005.4 0.0000 0.5000
05:45 4.9 3.6 91 229 0.6 1.1 1005.4 0.0000 0.5000
05:55 4.9 3.6 91 236 0.3 0.8 1005.7 0.0000 0.5000
06:05 4.9 3.6 91 270 0.3 0.8 1005.9 0.0000 0.5000
06:15 4.8 3.5 91 228 0.3 0.8 1006.2 0.0000 0.5000
06:25 4.7 3.4 91 226 0.6 1.4 1006.4 0.0000 0.5000
06:35 4.6 3.3 91 210 0.3 0.8 1006.4 0.0000 0.5000
06:45 4.5 3.3 92 195 0.3 1.1 1006.7 0.0000 0.5000
06:55 4.4 3.2 92 225 0.3 0.8 1006.8 0.0000 0.5000
07:06 4.2 3 92 225 0.6 0.8 1006.8 0.0000 0.5000
07:16 4 2.8 92 226 1.1 1.9 1007 0.0000 0.5000
07:25 3.7 2.5 92 225 1.4 2.5 1007.1 0.0000 0.5000
07:36 3.5 2.3 92 226 1.1 1.9 1007.3 0.0000 0.5000
07:46 3.5 2.3 92 219 0.6 1.4 1007.3 0.0000 0.5000
07:56 3.5 2.5 93 225 0.3 0.8 1007.4 0.0000 0.5000
08:05 3.6 2.6 93 237 0.6 1.4 1007.6 0.0000 0.5000
08:16 3.6 2.6 93 270 0.3 0.8 1007.6 0.0000 0.5000
08:26 3.5 2.5 93 303 0.3 1.1 1007.7 0.0000 0.5000
08:36 3.5 2.5 93 229 0.8 1.4 1007.9 0.0000 0.5000
08:46 3.4 2.4 93 232 0.3 0.8 1008.2 0.0000 0.5000
08:56 3.3 2.3 93 214 0.6 1.1 1008.2 0.0000 0.5000
09:06 3.2 2.3 94 218 0.8 1.4 1008.3 0.0000 0.5000
09:16 3.1 2.2 94 214 1.1 1.9 1008.3 0.0000 0.5000
09:27 3.2 2.3 94 221 1.7 2.5 1008.4 0.0000 0.5000
09:37 3.3 2.4 94 225 1.9 2.8 1008.5 0.0000 0.5000
09:46 3.5 2.8 95 224 1.9 3.1 1008.6 0.0000 0.5000
09:57 3.7 3 95 216 1.4 2.2 1008.7 0.0000 0.5000
10:07 3.9 3.2 95 224 1.9 3.1 1009 0.0000 0.5000
10:17 4.1 3.4 95 230 1.4 2.2 1009.1 0.0000 0.5000
10:26 4.3 3.6 95 225 1.1 1.9 1009.1 0.0000 0.5000
10:37 4.8 4.1 95 223 0.8 1.7 1009.2 0.0000 0.5000
10:47 5.3 4.6 95 198 1.4 2.2 1009.3 0.0000 0.5000
10:57 5.6 4.9 95 208 1.1 2.2 1009.2 0.0000 0.5000
11:07 6.1 5.4 95 270 0.6 1.9 1009.5 0.0000 0.5000
11:17 6.6 5.9 95 270 0.3 1.1 1009.5 0.0000 0.5000
11:27 7 6.1 94 270 0.3 1.1 1009.3 0.0000 0.5000
11:37 7.1 5.7 91 300 0.6 1.1 1009.3 0.0000 0.5000
11:48 7.2 5.3 88 302 0.6 1.9 1009.6 0.0000 0.5000
11:57 7.6 5.6 87 270 0.6 2.2 1009.3 0.0000 0.5000
12:07 8 5.8 86 315 0.6 1.9 1009.5 0.0000 0.5000
12:18 8.3 5.6 83 237 1.7 3.9 1009.7 0.0000 0.5000
12:34 9 5.9 81 235 0.8 5.3 1009.5 0.0000 0.5000
12:44 9.2 5.2 76 233 2.2 4.7 1009.5 0.0000 0.5000
12:54 9.3 4.7 73 225 1.9 5.3 1009.3 0.0000 0.5000
13:05 9.7 5.5 75 250 0.8 2.5 1009.1 0.0000 0.5000
13:15 10 5.4 73 252 1.4 3.9 1009 0.0000 0.5000
13:24 10.4 5.8 73 240 1.7 4.2 1008.8 0.0000 0.5000
13:34 10.4 5.6 72 249 0.8 3.3 1008.9 0.0000 0.5000
13:45 10.4 5 69 230 1.9 4.7 1008.8 0.0000 0.5000
14:04 10.1 5.1 71 239 1.1 4.4 1008.6 0.0000 0.5000
14:15 10.4 5.4 71 244 0.8 2.5 1008.7 0.0000 0.5000
14:25 10.2 5 70 244 1.4 3.9 1008.6 0.0000 0.5000
14:34 10.1 4.9 70 251 0.8 3.1 1008.6 0.0000 0.5000
14:44 10.1 4.7 69 233 1.4 3.6 1008.6 0.0000 0.5000
14:55 10.1 4.7 69 228 1.1 4.2 1008.5 0.0000 0.5000
15:05 10.2 4.8 69 244 0.8 2.8 1008.3 0.0000 0.5000
15:15 10.5 4.9 68 236 0.8 3.1 1008.3 0.0000 0.5000
15:25 10.4 4.5 67 230 1.4 5 1008.3 0.0000 0.5000
15:35 10.4 4.5 67 225 1.4 5 1008.3 0.0000 0.5000
15:45 10.4 4.8 68 225 1.4 3.1 1008.3 0.0000 0.5000
15:55 10.4 4.5 67 242 1.1 4.4 1008.4 0.0000 0.5000
16:06 10.3 4.2 66 239 1.1 3.1 1008.4 0.0000 0.5000
16:15 10.1 4 66 225 2.5 7.8 1007.9 0.0000 0.5000
16:25 10 3.7 65 225 2.5 6.7 1007.9 0.0000 0.5000
16:36 10 3.7 65 223 2.5 6.4 1007.7 0.0000 0.5000
16:46 10.2 3.7 64 223 2.5 7.5 1007.7 0.0000 0.5000
16:55 10.2 4.1 66 225 4.2 9.2 1007.8 0.0000 0.5000
17:05 10.2 4.1 66 223 3.3 7.2 1007.9 0.0000 0.5000
17:16 10.2 4.6 68 228 3.3 7.8 1007.9 0.0000 0.5000
17:26 10.1 4.7 69 220 3.6 8.6 1008.1 0.0000 0.5000
17:36 9.9 4.7 70 227 3.3 8.1 1008.1 0.0000 0.5000
17:54 9.4 4.8 73 226 3.6 10.8 1008.3 0.0000 0.5000
18:04 9.2 5 75 227 3.1 7.5 1008.4 0.0000 0.5000
18:15 9 5 76 233 1.7 3.6 1008.4 0.0000 0.5000
18:24 8.9 4.9 76 232 1.4 4.4 1008.3 0.0000 0.5000
18:34 8.8 5 77 270 0.6 1.7 1008.2 0.0000 0.5000
18:45 8.7 4.9 77 246 1.1 3.1 1008.2 0.0000 0.5000
18:55 8.9 5.1 77 235 1.7 5.3 1008.2 0.0000 0.5000
19:04 9 5.2 77 230 1.7 4.4 1008.2 0.0000 0.5000
19:14 9.1 5.3 77 247 0.8 2.2 1008.4 0.0000 0.5000
19:25 9.1 5.5 78 270 0.6 3.1 1008.5 0.0000 0.5000
19:35 9 5.4 78 225 0.6 1.9 1008.4 0.0000 0.5000
19:45 9.1 5.5 78 225 0.6 2.2 1008.4 0.0000 0.5000
19:55 9.1 5.5 78 270 0.8 2.8 1008.4 0.0000 0.5000
20:10 9.1 5.5 78 237 1.1 5.3 1008.2 0.0000 0.5000
20:20 9.2 5.8 79 227 1.1 4.2 1008.2 0.0000 0.5000
20:30 9.2 5.6 78 270 1.1 3.6 1008.2 0.0000 0.5000
20:40 9.3 5.7 78 229 1.9 5.6 1008.2 0.0000 0.5000
20:50 9.3 5.7 78 227 2.5 8.6 1008.1 0.0000 0.5000
21:00 9.3 5.8 79 228 1.7 5 1008.1 0.0000 0.5000
21:11 9.3 5.8 79 222 1.9 6.4 1008.3 0.0000 0.5000
21:20 9.3 5.8 79 228 2.5 6.9 1008.3 0.0000 0.5000
21:30 9.3 5.7 78 221 2.2 6.7 1008.3 0.0000 0.5000
21:43 9.3 5.7 78 218 2.5 9.7 1008.4 0.0000 0.5000
21:53 9.3 5.7 78 231 1.9 6.1 1008.4 0.0000 0.5000
22:03 9.3 5.7 78 229 1.9 5.8 1008.4 0.0000 0.5000
22:13 9.2 5.6 78 226 1.7 5.3 1008.4 0.0000 0.5000
22:23 9.1 5.5 78 232 2.5 5.3 1008.3 0.0000 0.5000
22:34 9.1 5.5 78 226 2.8 6.1 1008.2 0.0000 0.5000
22:43 9 5.4 78 223 3.1 8.1 1008.1 0.0000 0.5000
22:53 9 5.4 78 228 4.2 9.2 1008.2 0.0000 0.5000
23:03 8.9 5.3 78 228 3.9 8.1 1008.3 0.0000 0.5000
23:14 8.8 5.4 79 221 3.1 7.8 1008.3 0.0000 0.5000
23:24 8.8 5.2 78 226 3.3 6.4 1008.1 0.0000 0.5000
23:33 8.8 5.2 78 227 3.3 7.2 1008.1 0.0000 0.5000
23:44 8.7 5.1 78 233 2.2 6.7 1008.2 0.0000 0.5000
23:54 8.7 5.1 78 231 1.7 3.6 1008.3 0.0000

DAY STATISTIC

2021-01-24
TEMPERATURE
AVERAGE
7.6
HIGH
10.5
15:15
LOW
3.1
09:16
PRESSURE
AVERAGE
1006.8
HIGH
1009.7
12:18
LOW
998.5
00:07
DEWPOINT
AVERAGE
4.6
HIGH
6.1
11:27
LOW
2.2
09:16
HUMIDITY
AVERAGE
82
HIGH
95
09:46
LOW
64
16:46
WIND SPEED
AVERAGE
1.3
HIGH
4.2
16:55
WIND GUST
AVERAGE
3.6
HIGH
10.8
17:54
WIND DIRECTION
PREVAILING
SW
69.6%
N
0.0
NE
0.0
E
0.7
SE
0.7
S
1.4
SW
69.6
W
21.7
NW
5.8
PRECIPITATION
RAIN HOUR
0.5
RAIN DAY
0.5
TEMPERATURE (°C)
LOW
3.1
HIGH
10.5
AVERAGE
7.6
PRESSURE (hpa)
LOW
998.5
HIGH
1009.7
AVERAGE
1006.8
DEVICE